Time;durP1;ratioP1;P1;durP2;ratioP2;P2;SDS_P1;SDS_P2;PMS_P1;PMS_P2;Temp;Humidity;BMP_temperature;BMP_pressure;BME280_temperature;BME280_humidity;BME280_pressure;Samples;Min_cycle;Max_cycle;Signal;HPM_P1;HPM_P2
2022/08/12 00:44:35;;;;;;;;;;;;;;;;;;5033951;28;19964;-75
2022/08/12 00:47:00;;;;;;;;;;;;;;;;;;5047894;28;19951;-75
2022/08/12 00:49:25;;;;;;;;;;;;;;;;;;5037772;28;19975;-75
2022/08/12 00:52:05;;;;;;;;;;;;;;;;;;5044325;28;19920;-75
2022/08/12 00:54:31;;;;;;;;;;;;;;;;;;5049602;28;19962;-76
2022/08/12 00:56:56;;;;;;;;;;;;;;;;;;5051517;28;19917;-75
2022/08/12 00:59:22;;;;;;;;;;;;;;;;;;5032706;28;19916;-75
2022/08/12 01:01:47;;;;;;;;;;;;;;;;;;5034544;28;19957;-75
2022/08/12 01:12:24;;;;;;;;;;;;;;;;;;5051993;28;19919;-75
2022/08/12 01:14:49;;;;;;;;;;;;;;;;;;5050025;28;19917;-74
2022/08/12 01:17:15;;;;;;;;;;;;;;;;;;5037583;28;19956;-74
2022/08/12 01:19:40;;;;;;;;;;;;;;;;;;5056231;28;19913;-75
2022/08/12 01:22:05;;;;;;;;;;;;;;;;;;5050486;28;19955;-75
2022/08/12 01:24:30;;;;;;;;;;;;;;;;;;5055871;28;19919;-74
2022/08/12 01:26:55;;;;;;;;;;;;;;;;;;5052550;28;19920;-75
2022/08/12 01:29:20;;;;;;;;;;;;;;;;;;5037532;28;19920;-74
2022/08/12 01:31:46;;;;;;;;;;;;;;;;;;5053581;28;19913;-75
2022/08/12 01:34:11;;;;;;;;;;;;;;;;;;5037506;28;19928;-75
2022/08/12 01:36:36;;;;;;;;;;;;;;;;;;5054174;28;20000;-75
2022/08/12 01:39:01;;;;;;;;;;;;;;;;;;5035744;28;19917;-75
2022/08/12 01:41:26;;;;;;;;;;;;;;;;;;5036027;28;19944;-75
2022/08/12 01:43:52;;;;;;;;;;;;;;;;;;5054787;28;19919;-75
2022/08/12 01:46:17;;;;;;;;;;;;;;;;;;5054388;28;19959;-75
2022/08/12 01:48:42;;;;;;;;;;;;;;;;;;5055510;28;19954;-75
2022/08/12 01:51:07;;;;;;;;;;;;;;;;;;5054152;28;19916;-75
2022/08/12 01:53:32;;;;;;;;;;;;;;;;;;5019874;28;19917;-74
2022/08/12 01:55:58;;;;;;;;;;;;;;;;;;5050522;28;19917;-75
2022/08/12 01:58:23;;;;;;;;;;;;;;;;;;5036791;28;20388;-74
2022/08/12 02:00:50;;;;;;;;;;;;;;;;;;5037240;28;20298;-75
2022/08/12 02:03:16;;;;;;;;;;;;;;;;;;5052743;28;19925;-75
2022/08/12 02:11:16;;;;;;;;;;;;;;;;;;5046874;28;20482;-74
2022/08/12 02:13:41;;;;;;;;;;;;;;;;;;5046301;28;19913;-74
2022/08/12 02:16:06;;;;;;;;;;;;;;;;;;5055173;28;20004;-74
2022/08/12 02:18:31;;;;;;;;;;;;;;;;;;5054704;28;19963;-75
2022/08/12 02:20:56;;;;;;;;;;;;;;;;;;5035088;28;19948;-75
2022/08/12 02:23:22;;;;;;;;;;;;;;;;;;5052505;28;20679;-74
2022/08/12 02:25:47;;;;;;;;;;;;;;;;;;5054518;28;19940;-74
2022/08/12 02:28:12;;;;;;;;;;;;;;;;;;5036154;28;20364;-74
2022/08/12 02:30:37;;;;;;;;;;;;;;;;;;5036782;28;19939;-75
2022/08/12 02:33:03;;;;;;;;;;;;;;;;;;5054479;28;20375;-75
2022/08/12 02:35:28;;;;;;;;;;;;;;;;;;5034996;28;20020;-74
2022/08/12 02:37:53;;;;;;;;;;;;;;;;;;5054210;28;20338;-74
2022/08/12 02:40:18;;;;;;;;;;;;;;;;;;5054708;28;19948;-74
2022/08/12 02:42:44;;;;;;;;;;;;;;;;;;5054040;28;19966;-74
2022/08/12 02:45:09;;;;;;;;;;;;;;;;;;5052747;28;20008;-74
2022/08/12 02:47:34;;;;;;;;;;;;;;;;;;5036360;28;19913;-74
2022/08/12 02:49:59;;;;;;;;;;;;;;;;;;5054483;28;20373;-74
2022/08/12 02:52:25;;;;;;;;;;;;;;;;;;5031996;28;19920;-74
2022/08/12 02:54:50;;;;;;;;;;;;;;;;;;5052534;28;20456;-75
2022/08/12 02:57:16;;;;;;;;;;;;;;;;;;5053428;28;20005;-74
2022/08/12 02:59:42;;;;;;;;;;;;;;;;;;5035431;28;19916;-74
2022/08/12 03:02:07;;;;;;;;;;;;;;;;;;5036119;28;19921;-74
2022/08/12 03:04:32;;;;;;;;;;;;;;;;;;5042159;28;19944;-75
2022/08/12 03:06:57;;;;;;;;;;;;;;;;;;5031731;28;19912;-74
2022/08/12 03:09:23;;;;;;;;;;;;;;;;;;5036087;28;20007;-75
2022/08/12 03:11:48;;;;;;;;;;;;;;;;;;5054081;28;19952;-74
2022/08/12 03:14:13;;;;;;;;;;;;;;;;;;5035664;28;19920;-75
2022/08/12 03:16:39;;;;;;;;;;;;;;;;;;5030751;28;19917;-75
2022/08/12 03:19:04;;;;;;;;;;;;;;;;;;5036178;28;19924;-74
2022/08/12 03:21:29;;;;;;;;;;;;;;;;;;5052708;28;20412;-74
2022/08/12 03:23:54;;;;;;;;;;;;;;;;;;5052788;28;20007;-75
2022/08/12 03:26:20;;;;;;;;;;;;;;;;;;5035447;28;20291;-74
2022/08/12 03:28:55;;;;;;;;;;;;;;;;;;5051557;28;19913;-74
2022/08/12 03:31:20;;;;;;;;;;;;;;;;;;5033709;28;19967;-75
2022/08/12 03:33:45;;;;;;;;;;;;;;;;;;5053321;28;19917;-75
2022/08/12 03:36:10;;;;;;;;;;;;;;;;;;5035635;28;19967;-76
2022/08/12 03:38:37;;;;;;;;;;;;;;;;;;5041474;28;19927;-76
2022/08/12 04:00:18;;;;;;;;;;;;;;;;;;5050020;28;19924;-75
2022/08/12 04:02:44;;;;;;;;;;;;;;;;;;5052436;28;19982;-75
2022/08/12 04:05:09;;;;;;;;;;;;;;;;;;5052965;28;19913;-75
2022/08/12 04:07:34;;;;;;;;;;;;;;;;;;5034440;28;19921;-74
2022/08/12 04:09:59;;;;;;;;;;;;;;;;;;5032264;28;19963;-74
2022/08/12 04:15:09;;;;;;;;;;;;;;;;;;5050723;28;19962;-74
2022/08/12 04:17:34;;;;;;;;;;;;;;;;;;5034583;28;20332;-73
2022/08/12 04:20:00;;;;;;;;;;;;;;;;;;5050293;28;20561;-74
2022/08/12 04:22:29;;;;;;;;;;;;;;;;;;5036531;28;19936;-74
2022/08/12 04:24:54;;;;;;;;;;;;;;;;;;5033381;28;20364;-75
2022/08/12 04:27:19;;;;;;;;;;;;;;;;;;5052673;28;20410;-74
2022/08/12 04:29:44;;;;;;;;;;;;;;;;;;5032912;28;20393;-75
2022/08/12 04:32:11;;;;;;;;;;;;;;;;;;5033885;28;19917;-75
2022/08/12 04:34:38;;;;;;;;;;;;;;;;;;5052751;28;19959;-74
2022/08/12 04:37:03;;;;;;;;;;;;;;;;;;5034345;28;19920;-74
2022/08/12 04:39:28;;;;;;;;;;;;;;;;;;5051998;28;19917;-74
2022/08/12 04:41:53;;;;;;;;;;;;;;;;;;5049926;28;19912;-74
2022/08/12 04:44:18;;;;;;;;;;;;;;;;;;5052675;28;19999;-75
2022/08/12 04:46:44;;;;;;;;;;;;;;;;;;5034656;28;19913;-75
2022/08/12 04:49:09;;;;;;;;;;;;;;;;;;5033985;28;20013;-75
2022/08/12 04:51:34;;;;;;;;;;;;;;;;;;5046928;28;19999;-74
2022/08/12 04:54:00;;;;;;;;;;;;;;;;;;5032681;28;19921;-74
2022/08/12 04:56:27;;;;;;;;;;;;;;;;;;5031999;28;19913;-75
2022/08/12 04:58:52;;;;;;;;;;;;;;;;;;5033716;28;19917;-74
2022/08/12 05:01:18;;;;;;;;;;;;;;;;;;5050915;28;19975;-75
2022/08/12 05:03:44;;;;;;;;;;;;;;;;;;5049578;28;19924;-75
2022/08/12 05:06:09;;;;;;;;;;;;;;;;;;5069885;28;19920;-75
2022/08/12 05:08:35;;;;;;;;;;;;;;;;;;5070451;28;19966;-74
2022/08/12 05:11:00;;;;;;;;;;;;;;;;;;5070545;28;19916;-74
2022/08/12 05:13:26;;;;;;;;;;;;;;;;;;5067088;28;20007;-75
2022/08/12 05:15:51;;;;;;;;;;;;;;;;;;5072566;28;19905;-75
2022/08/12 05:18:16;;;;;;;;;;;;;;;;;;5066794;28;19921;-74
2022/08/12 05:20:44;;;;;;;;;;;;;;;;;;5069584;28;19991;-74
2022/08/12 05:23:09;;;;;;;;;;;;;;;;;;5065902;28;19913;-76
2022/08/12 05:25:34;;;;;;;;;;;;;;;;;;5075190;28;19965;-76
2022/08/12 05:27:59;;;;;;;;;;;;;;;;;;5073826;28;19917;-76
2022/08/12 05:30:24;;;;;;;;;;;;;;;;;;5070206;28;19939;-76
2022/08/12 05:32:50;;;;;;;;;;;;;;;;;;5066373;28;19919;-76
2022/08/12 05:35:15;;;;;;;;;;;;;;;;;;5065886;28;19988;-76
2022/08/12 05:37:40;;;;;;;;;;;;;;;;;;5061551;28;19912;-77
2022/08/12 05:40:05;;;;;;;;;;;;;;;;;;5070270;28;19912;-76
2022/08/12 05:42:31;;;;;;;;;;;;;;;;;;5070626;28;19912;-76
2022/08/12 05:44:56;;;;;;;;;;;;;;;;;;5060512;28;19973;-74
2022/08/12 05:47:21;;;;;;;;;;;;;;;;;;5063992;28;20424;-75
2022/08/12 05:49:47;;;;;;;;;;;;;;;;;;5071336;28;19909;-75
2022/08/12 05:52:12;;;;;;;;;;;;;;;;;;5066993;28;20432;-75
2022/08/12 05:54:42;;;;;;;;;;;;;;;;;;5068866;28;19912;-74
2022/08/12 05:57:07;;;;;;;;;;;;;;;;;;5055163;28;19912;-74
2022/08/12 05:59:32;;;;;;;;;;;;;;;;;;5070899;28;19985;-74
2022/08/12 06:02:02;;;;;;;;;;;;;;;;;;5071570;28;19915;-75
2022/08/12 06:04:28;;;;;;;;;;;;;;;;;;5054609;28;19922;-76
2022/08/12 06:06:53;;;;;;;;;;;;;;;;;;5034213;28;19920;-74
2022/08/12 06:09:18;;;;;;;;;;;;;;;;;;5055013;28;19915;-74
2022/08/12 06:11:46;;;;;;;;;;;;;;;;;;5052649;28;19958;-75
2022/08/12 06:14:11;;;;;;;;;;;;;;;;;;5049045;28;19920;-74
2022/08/12 06:16:36;;;;;;;;;;;;;;;;;;5049266;28;19913;-73
2022/08/12 06:19:01;;;;;;;;;;;;;;;;;;5035878;28;19996;-75
2022/08/12 06:21:26;;;;;;;;;;;;;;;;;;5052703;28;19927;-73
2022/08/12 06:23:51;;;;;;;;;;;;;;;;;;5035114;28;19913;-74
2022/08/12 06:26:19;;;;;;;;;;;;;;;;;;5053008;28;19913;-74
2022/08/12 06:28:44;;;;;;;;;;;;;;;;;;5036647;28;19909;-74
2022/08/12 06:31:14;;;;;;;;;;;;;;;;;;5036861;28;19919;-73
2022/08/12 06:33:43;;;;;;;;;;;;;;;;;;5036015;28;19920;-74
2022/08/12 06:36:08;;;;;;;;;;;;;;;;;;5036023;28;19913;-76
2022/08/12 06:38:33;;;;;;;;;;;;;;;;;;5049665;28;19971;-74
2022/08/12 06:43:42;;;;;;;;;;;;;;;;;;5045107;28;20503;-74
2022/08/12 06:46:08;;;;;;;;;;;;;;;;;;5036298;28;19913;-74
2022/08/12 06:48:33;;;;;;;;;;;;;;;;;;5052535;28;20355;-73
2022/08/12 06:50:58;;;;;;;;;;;;;;;;;;5033612;28;19921;-74
2022/08/12 06:53:24;;;;;;;;;;;;;;;;;;5020566;28;19913;-74
2022/08/12 06:55:49;;;;;;;;;;;;;;;;;;5053012;28;19912;-74
2022/08/12 06:58:15;;;;;;;;;;;;;;;;;;5047678;28;20386;-74
2022/08/12 07:00:42;;;;;;;;;;;;;;;;;;5054332;28;19920;-74
2022/08/12 07:03:07;;;;;;;;;;;;;;;;;;5049369;28;19936;-74
2022/08/12 07:05:32;;;;;;;;;;;;;;;;;;5048373;28;19913;-74
2022/08/12 07:07:57;;;;;;;;;;;;;;;;;;5048421;28;19917;-74
2022/08/12 07:10:22;;;;;;;;;;;;;;;;;;5032826;28;19995;-74
2022/08/12 07:12:53;;;;;;;;;;;;;;;;;;5035149;28;19970;-74
2022/08/12 07:15:19;;;;;;;;;;;;;;;;;;5021959;28;19970;-74
2022/08/12 07:17:44;;;;;;;;;;;;;;;;;;5044667;28;19912;-73
2022/08/12 07:20:11;;;;;;;;;;;;;;;;;;5027183;28;20291;-74
2022/08/12 07:22:36;;;;;;;;;;;;;;;;;;5023255;28;19912;-74
2022/08/12 07:25:34;;;;;;;;;;;;;;;;;;5035130;28;20359;-74
2022/08/12 07:27:52;;;;;;;;;;;;;;;;;;5051010;28;19916;-73
2022/08/12 07:30:18;;;;;;;;;;;;;;;;;;5029540;28;19995;-74
2022/08/12 07:32:46;;;;;;;;;;;;;;;;;;5034968;28;20359;-74
2022/08/12 07:35:11;;;;;;;;;;;;;;;;;;5052578;28;20379;-74
2022/08/12 07:37:36;;;;;;;;;;;;;;;;;;5052930;28;19920;-73
2022/08/12 07:40:01;;;;;;;;;;;;;;;;;;5050574;28;19921;-74
2022/08/12 07:42:26;;;;;;;;;;;;;;;;;;5052628;28;19944;-74
2022/08/12 07:44:52;;;;;;;;;;;;;;;;;;5034311;28;19916;-74
2022/08/12 07:47:17;;;;;;;;;;;;;;;;;;5052896;28;20376;-74
2022/08/12 07:49:42;;;;;;;;;;;;;;;;;;5052808;28;19909;-74
2022/08/12 07:52:07;;;;;;;;;;;;;;;;;;5027292;28;19913;-74
2022/08/12 07:54:32;;;;;;;;;;;;;;;;;;5052185;28;20391;-73
2022/08/12 07:56:57;;;;;;;;;;;;;;;;;;5034589;28;19983;-74
2022/08/12 07:59:23;;;;;;;;;;;;;;;;;;5034240;28;20381;-73
2022/08/12 08:01:49;;;;;;;;;;;;;;;;;;5049930;28;20006;-73
2022/08/12 08:06:59;;;;;;;;;;;;;;;;;;5045501;28;20288;-75
2022/08/12 08:09:24;;;;;;;;;;;;;;;;;;5052363;28;20007;-74
2022/08/12 08:14:34;;;;;;;;;;;;;;;;;;5045664;28;19927;-75
2022/08/12 08:16:59;;;;;;;;;;;;;;;;;;5032413;28;19917;-74
2022/08/12 08:19:25;;;;;;;;;;;;;;;;;;5050855;28;19986;-74
2022/08/12 08:21:50;;;;;;;;;;;;;;;;;;5027211;28;19956;-75
2022/08/12 08:24:16;;;;;;;;;;;;;;;;;;5032095;28;19955;-75
2022/08/12 08:26:41;;;;;;;;;;;;;;;;;;5034053;28;20393;-75
2022/08/12 08:29:11;;;;;;;;;;;;;;;;;;5051171;28;19913;-75
2022/08/12 08:31:36;;;;;;;;;;;;;;;;;;5051783;28;19959;-75
2022/08/12 08:34:02;;;;;;;;;;;;;;;;;;5046561;28;19909;-74
2022/08/12 08:36:27;;;;;;;;;;;;;;;;;;5033723;28;20294;-74
2022/08/12 08:38:52;;;;;;;;;;;;;;;;;;5051011;28;20268;-75
2022/08/12 08:44:01;;;;;;;;;;;;;;;;;;5044136;28;19919;-75
2022/08/12 08:46:27;;;;;;;;;;;;;;;;;;5047922;28;19909;-75
2022/08/12 08:48:52;;;;;;;;;;;;;;;;;;5051447;28;19919;-75
2022/08/12 08:51:17;;;;;;;;;;;;;;;;;;5028782;28;19916;-84
2022/08/12 08:53:43;;;;;;;;;;;;;;;;;;5033941;28;20373;-81
2022/08/12 08:56:09;;;;;;;;;;;;;;;;;;5044734;28;19913;-81
2022/08/12 08:58:36;;;;;;;;;;;;;;;;;;5050453;28;19917;-82
2022/08/12 09:01:03;;;;;;;;;;;;;;;;;;5031278;28;20323;-82
2022/08/12 09:03:29;;;;;;;;;;;;;;;;;;5046029;28;19932;-83
2022/08/12 09:05:54;;;;;;;;;;;;;;;;;;5073031;28;20006;-86
2022/08/12 09:08:19;;;;;;;;;;;;;;;;;;5071775;28;19952;-83
2022/08/12 09:10:44;;;;;;;;;;;;;;;;;;5071965;28;19912;-84
2022/08/12 09:13:28;;;;;;;;;;;;;;;;;;5071931;28;19920;-81
2022/08/12 09:15:53;;;;;;;;;;;;;;;;;;5069991;28;19966;-79
2022/08/12 09:18:18;;;;;;;;;;;;;;;;;;5070317;28;19924;-80
2022/08/12 09:20:43;;;;;;;;;;;;;;;;;;5071555;28;19999;-79
2022/08/12 09:23:09;;;;;;;;;;;;;;;;;;5069415;28;19916;-79
2022/08/12 09:25:35;;;;;;;;;;;;;;;;;;5071486;28;20342;-80
2022/08/12 09:28:00;;;;;;;;;;;;;;;;;;5070328;28;19962;-80
2022/08/12 09:30:25;;;;;;;;;;;;;;;;;;5071157;28;19920;-80
2022/08/12 09:32:50;;;;;;;;;;;;;;;;;;5068745;28;20438;-80
2022/08/12 09:35:15;;;;;;;;;;;;;;;;;;5071246;28;20317;-81
2022/08/12 09:37:40;;;;;;;;;;;;;;;;;;5071126;28;19917;-84
2022/08/12 09:40:05;;;;;;;;;;;;;;;;;;5074197;28;19956;-81
2022/08/12 09:45:24;;;;;;;;;;;;;;;;;;5074745;28;19918;-80
2022/08/12 09:47:49;;;;;;;;;;;;;;;;;;5074377;28;19963;-80
2022/08/12 09:50:15;;;;;;;;;;;;;;;;;;5073541;28;19948;-81
2022/08/12 09:52:41;;;;;;;;;;;;;;;;;;5073309;28;20003;-80
2022/08/12 09:55:06;;;;;;;;;;;;;;;;;;5066084;28;20035;-81
2022/08/12 09:57:31;;;;;;;;;;;;;;;;;;5074836;28;19913;-83
2022/08/12 09:59:56;;;;;;;;;;;;;;;;;;5072115;28;20342;-80
2022/08/12 10:02:22;;;;;;;;;;;;;;;;;;5073624;28;19920;-80
2022/08/12 10:04:47;;;;;;;;;;;;;;;;;;5050592;28;19920;-80
2022/08/12 10:07:12;;;;;;;;;;;;;;;;;;5032213;28;20005;-85
2022/08/12 10:09:37;;;;;;;;;;;;;;;;;;5036559;28;19912;-81
2022/08/12 10:14:47;;;;;;;;;;;;;;;;;;5050774;28;20008;-79
2022/08/12 10:17:13;;;;;;;;;;;;;;;;;;5036724;28;20000;-79
2022/08/12 10:19:39;;;;;;;;;;;;;;;;;;5053232;28;20423;-80
2022/08/12 10:22:04;;;;;;;;;;;;;;;;;;5048447;28;19920;-80
2022/08/12 10:24:30;;;;;;;;;;;;;;;;;;5045271;28;19921;-80
2022/08/12 10:29:40;;;;;;;;;;;;;;;;;;5052893;28;19927;-80
2022/08/12 10:32:06;;;;;;;;;;;;;;;;;;5036217;28;19913;-80
2022/08/12 10:34:31;;;;;;;;;;;;;;;;;;5028357;28;20256;-80
2022/08/12 10:36:57;;;;;;;;;;;;;;;;;;5032212;28;19912;-78
2022/08/12 10:39:22;;;;;;;;;;;;;;;;;;5052332;28;19924;-80
2022/08/12 10:44:32;;;;;;;;;;;;;;;;;;5052676;28;19920;-78
2022/08/12 10:46:57;;;;;;;;;;;;;;;;;;5052262;28;19921;-78
2022/08/12 10:49:27;;;;;;;;;;;;;;;;;;5035025;28;19912;-78
2022/08/12 10:51:53;;;;;;;;;;;;;;;;;;5049878;28;19944;-77
2022/08/12 10:54:18;;;;;;;;;;;;;;;;;;5035504;28;20375;-78
2022/08/12 10:56:48;;;;;;;;;;;;;;;;;;5051213;28;19916;-77
2022/08/12 10:59:14;;;;;;;;;;;;;;;;;;5052201;28;20000;-78
2022/08/12 11:01:41;;;;;;;;;;;;;;;;;;5053620;28;19909;-78
2022/08/12 11:04:09;;;;;;;;;;;;;;;;;;5051601;28;19959;-77
2022/08/12 11:06:36;;;;;;;;;;;;;;;;;;5052990;28;19913;-78
2022/08/12 11:09:01;;;;;;;;;;;;;;;;;;5049109;28;19917;-78
2022/08/12 11:11:26;;;;;;;;;;;;;;;;;;5035025;28;20274;-77
2022/08/12 11:13:51;;;;;;;;;;;;;;;;;;5033365;28;19960;-79
2022/08/12 11:16:16;;;;;;;;;;;;;;;;;;5035196;28;19952;-78
2022/08/12 11:18:42;;;;;;;;;;;;;;;;;;5032864;28;19913;-80
2022/08/12 11:21:07;;;;;;;;;;;;;;;;;;5049307;28;19920;-81
2022/08/12 11:23:32;;;;;;;;;;;;;;;;;;5035070;28;19920;-80
2022/08/12 11:25:57;;;;;;;;;;;;;;;;;;5033006;28;19951;-80
2022/08/12 11:28:22;;;;;;;;;;;;;;;;;;5051824;28;19917;-81
2022/08/12 11:30:47;;;;;;;;;;;;;;;;;;5032835;28;20382;-81
2022/08/12 11:33:12;;;;;;;;;;;;;;;;;;5035175;28;20450;-81
2022/08/12 11:35:40;;;;;;;;;;;;;;;;;;5034036;28;19913;-80
2022/08/12 11:38:05;;;;;;;;;;;;;;;;;;5033905;28;19912;-80
2022/08/12 11:40:30;;;;;;;;;;;;;;;;;;5051384;28;19917;-80
2022/08/12 11:42:55;;;;;;;;;;;;;;;;;;5051021;28;19959;-80
2022/08/12 11:45:20;;;;;;;;;;;;;;;;;;5052445;28;19923;-80
2022/08/12 11:47:46;;;;;;;;;;;;;;;;;;5034628;28;19920;-79
2022/08/12 11:50:11;;;;;;;;;;;;;;;;;;5051975;28;19935;-79
2022/08/12 11:52:36;;;;;;;;;;;;;;;;;;5028731;28;19913;-78
2022/08/12 11:55:01;;;;;;;;;;;;;;;;;;5048660;28;19928;-78
2022/08/12 11:57:26;;;;;;;;;;;;;;;;;;5049772;28;19916;-82
2022/08/12 11:59:51;;;;;;;;;;;;;;;;;;5032638;28;19917;-78
2022/08/12 12:02:16;;;;;;;;;;;;;;;;;;5027471;28;19952;-79
2022/08/12 12:04:42;;;;;;;;;;;;;;;;;;5039709;28;19924;-78
2022/08/12 12:07:07;;;;;;;;;;;;;;;;;;5040948;28;20438;-79
2022/08/12 12:09:32;;;;;;;;;;;;;;;;;;5040603;28;20390;-80
2022/08/12 12:11:59;;;;;;;;;;;;;;;;;;5023634;28;19924;-79
2022/08/12 12:14:25;;;;;;;;;;;;;;;;;;5040253;28;19919;-79
2022/08/12 12:16:51;;;;;;;;;;;;;;;;;;5041093;28;20123;-78
2022/08/12 12:19:16;;;;;;;;;;;;;;;;;;5023279;28;19921;-78
2022/08/12 12:21:41;;;;;;;;;;;;;;;;;;5039470;28;19912;-79
2022/08/12 12:24:06;;;;;;;;;;;;;;;;;;5023221;28;19913;-79
2022/08/12 12:26:32;;;;;;;;;;;;;;;;;;5037252;28;19921;-78
2022/08/12 12:28:57;;;;;;;;;;;;;;;;;;5020741;28;19913;-78
2022/08/12 12:31:23;;;;;;;;;;;;;;;;;;5040054;28;19921;-78
2022/08/12 12:33:48;;;;;;;;;;;;;;;;;;5041097;28;19913;-79
2022/08/12 12:36:13;;;;;;;;;;;;;;;;;;5039232;28;19916;-78
2022/08/12 12:38:38;;;;;;;;;;;;;;;;;;5032295;28;19924;-80
2022/08/12 12:41:03;;;;;;;;;;;;;;;;;;5044358;28;19919;-79
2022/08/12 12:43:30;;;;;;;;;;;;;;;;;;5025978;28;19913;-79
2022/08/12 12:45:55;;;;;;;;;;;;;;;;;;5042367;28;20497;-78
2022/08/12 12:48:21;;;;;;;;;;;;;;;;;;5032064;28;19964;-77
2022/08/12 12:50:46;;;;;;;;;;;;;;;;;;5050593;28;20307;-78
2022/08/12 12:53:20;;;;;;;;;;;;;;;;;;5042662;28;19928;-78
2022/08/12 12:55:46;;;;;;;;;;;;;;;;;;5044345;28;19917;-78
2022/08/12 12:58:15;;;;;;;;;;;;;;;;;;5030769;28;20004;-78
2022/08/12 13:00:43;;;;;;;;;;;;;;;;;;5051198;28;19923;-79
2022/08/12 13:03:08;;;;;;;;;;;;;;;;;;5051583;28;20287;-79
2022/08/12 13:05:35;;;;;;;;;;;;;;;;;;5033425;28;19913;-79
2022/08/12 13:08:00;;;;;;;;;;;;;;;;;;5032025;28;19920;-80
2022/08/12 13:10:25;;;;;;;;;;;;;;;;;;5051103;28;19935;-80
2022/08/12 13:12:52;;;;;;;;;;;;;;;;;;5058143;28;20294;-78
2022/08/12 13:15:17;;;;;;;;;;;;;;;;;;5058013;28;19919;-80
2022/08/12 13:17:42;;;;;;;;;;;;;;;;;;5040369;28;19913;-79
2022/08/12 13:20:07;;;;;;;;;;;;;;;;;;5038405;28;19917;-79
2022/08/12 13:22:32;;;;;;;;;;;;;;;;;;5029590;28;20359;-79
2022/08/12 13:24:58;;;;;;;;;;;;;;;;;;5032418;28;19917;-79
2022/08/12 13:27:27;;;;;;;;;;;;;;;;;;5040394;28;19916;-78
2022/08/12 13:29:53;;;;;;;;;;;;;;;;;;5055582;28;20295;-79
2022/08/12 13:32:20;;;;;;;;;;;;;;;;;;5039337;28;20302;-79
2022/08/12 13:34:52;;;;;;;;;;;;;;;;;;5057567;28;19948;-78
2022/08/12 13:37:18;;;;;;;;;;;;;;;;;;5039844;28;19919;-79
2022/08/12 13:39:43;;;;;;;;;;;;;;;;;;5055489;28;19967;-79
2022/08/12 13:42:09;;;;;;;;;;;;;;;;;;5058074;28;19960;-79
2022/08/12 13:44:34;;;;;;;;;;;;;;;;;;5057592;28;19909;-80
2022/08/12 13:46:59;;;;;;;;;;;;;;;;;;5039834;28;19960;-79
2022/08/12 13:49:24;;;;;;;;;;;;;;;;;;5057858;28;19908;-78
2022/08/12 13:51:52;;;;;;;;;;;;;;;;;;5026728;28;19969;-78
2022/08/12 13:54:19;;;;;;;;;;;;;;;;;;5057597;28;20050;-78
2022/08/12 13:56:45;;;;;;;;;;;;;;;;;;5058030;28;20359;-79
2022/08/12 13:59:11;;;;;;;;;;;;;;;;;;5038049;28;20410;-79
2022/08/12 14:01:36;;;;;;;;;;;;;;;;;;5056173;28;19951;-79
2022/08/12 14:04:03;;;;;;;;;;;;;;;;;;5061008;28;19921;-79
2022/08/12 14:06:28;;;;;;;;;;;;;;;;;;5076315;28;19913;-79
2022/08/12 14:08:54;;;;;;;;;;;;;;;;;;5076559;28;19908;-79
2022/08/12 14:11:19;;;;;;;;;;;;;;;;;;5074222;28;20015;-79
2022/08/12 14:13:44;;;;;;;;;;;;;;;;;;5074903;28;20030;-80
2022/08/12 14:16:13;;;;;;;;;;;;;;;;;;5076177;28;20125;-79
2022/08/12 14:18:40;;;;;;;;;;;;;;;;;;5077372;28;20511;-79
2022/08/12 14:21:08;;;;;;;;;;;;;;;;;;5075041;28;19916;-79
2022/08/12 14:23:34;;;;;;;;;;;;;;;;;;5074032;28;20374;-79
2022/08/12 14:25:59;;;;;;;;;;;;;;;;;;5073544;28;19920;-78
2022/08/12 14:28:24;;;;;;;;;;;;;;;;;;5073017;28;19935;-78
2022/08/12 14:30:57;;;;;;;;;;;;;;;;;;5069839;28;19919;-79
2022/08/12 14:33:22;;;;;;;;;;;;;;;;;;5072994;28;19920;-78
2022/08/12 14:35:48;;;;;;;;;;;;;;;;;;5071960;28;19912;-78
2022/08/12 14:38:14;;;;;;;;;;;;;;;;;;5073994;28;19913;-78
2022/08/12 14:40:40;;;;;;;;;;;;;;;;;;5074054;28;20220;-79
2022/08/12 14:43:05;;;;;;;;;;;;;;;;;;5071959;28;20040;-79
2022/08/12 14:45:30;;;;;;;;;;;;;;;;;;5070962;28;19978;-78
2022/08/12 14:47:57;;;;;;;;;;;;;;;;;;5072683;28;19939;-80
2022/08/12 14:50:22;;;;;;;;;;;;;;;;;;5073451;28;19912;-79
2022/08/12 14:52:49;;;;;;;;;;;;;;;;;;5071081;28;19916;-78
2022/08/12 14:55:14;;;;;;;;;;;;;;;;;;5073288;28;19999;-79
2022/08/12 14:57:42;;;;;;;;;;;;;;;;;;5070775;28;20012;-79
2022/08/12 15:02:51;;;;;;;;;;;;;;;;;;5062576;28;19923;-80
2022/08/12 15:05:16;;;;;;;;;;;;;;;;;;5053733;28;19917;-80
2022/08/12 15:07:42;;;;;;;;;;;;;;;;;;5035653;28;19917;-79
2022/08/12 15:10:08;;;;;;;;;;;;;;;;;;5051566;28;19913;-79
2022/08/12 15:12:33;;;;;;;;;;;;;;;;;;5052305;28;19970;-79
2022/08/12 15:14:58;;;;;;;;;;;;;;;;;;5050292;28;19917;-79
2022/08/12 15:17:26;;;;;;;;;;;;;;;;;;5032075;28;19913;-79
2022/08/12 15:19:51;;;;;;;;;;;;;;;;;;5050360;28;19947;-79
2022/08/12 15:22:16;;;;;;;;;;;;;;;;;;5033270;28;19912;-79
2022/08/12 15:24:43;;;;;;;;;;;;;;;;;;5051998;28;19920;-78
2022/08/12 15:27:08;;;;;;;;;;;;;;;;;;5049908;28;19913;-81
2022/08/12 15:29:33;;;;;;;;;;;;;;;;;;5034039;28;19920;-79
2022/08/12 15:32:00;;;;;;;;;;;;;;;;;;5050086;28;19912;-79
2022/08/12 15:34:25;;;;;;;;;;;;;;;;;;5030527;28;20396;-79
2022/08/12 15:36:51;;;;;;;;;;;;;;;;;;5032910;28;19917;-79
2022/08/12 15:39:16;;;;;;;;;;;;;;;;;;5033509;28;19921;-80
2022/08/12 15:41:41;;;;;;;;;;;;;;;;;;5052161;28;19920;-80
2022/08/12 15:44:10;;;;;;;;;;;;;;;;;;5052737;28;19912;-80
2022/08/12 15:46:35;;;;;;;;;;;;;;;;;;5046124;28;20384;-80
2022/08/12 15:49:00;;;;;;;;;;;;;;;;;;5032656;28;19912;-79
2022/08/12 15:51:26;;;;;;;;;;;;;;;;;;5030685;28;19913;-79
2022/08/12 15:54:06;;;;;;;;;;;;;;;;;;5028978;28;20492;-80
2022/08/12 15:56:32;;;;;;;;;;;;;;;;;;5046594;28;19917;-80
2022/08/12 15:58:57;;;;;;;;;;;;;;;;;;5030515;28;19916;-79
2022/08/12 16:01:23;;;;;;;;;;;;;;;;;;5034742;28;19958;-80
2022/08/12 16:03:48;;;;;;;;;;;;;;;;;;5051513;28;19924;-79
2022/08/12 16:06:13;;;;;;;;;;;;;;;;;;5069748;28;20367;-79
2022/08/12 16:08:41;;;;;;;;;;;;;;;;;;5068796;28;19916;-80
2022/08/12 16:11:06;;;;;;;;;;;;;;;;;;5071698;28;20013;-80
2022/08/12 16:13:31;;;;;;;;;;;;;;;;;;5065828;28;20377;-80
2022/08/12 16:15:58;;;;;;;;;;;;;;;;;;5069863;28;20291;-80
2022/08/12 16:18:23;;;;;;;;;;;;;;;;;;5066736;28;19927;-79
2022/08/12 16:20:50;;;;;;;;;;;;;;;;;;5070025;28;19916;-79
2022/08/12 16:23:16;;;;;;;;;;;;;;;;;;5060787;28;19920;-78
2022/08/12 16:25:41;;;;;;;;;;;;;;;;;;5059568;28;20341;-78
2022/08/12 16:28:08;;;;;;;;;;;;;;;;;;5063016;28;19913;-78
2022/08/12 16:30:33;;;;;;;;;;;;;;;;;;5071081;28;19912;-78
2022/08/12 16:32:58;;;;;;;;;;;;;;;;;;5070329;28;19908;-81
2022/08/12 16:35:23;;;;;;;;;;;;;;;;;;5071779;28;19913;-79
2022/08/12 16:37:48;;;;;;;;;;;;;;;;;;5069599;28;19915;-80
2022/08/12 16:40:14;;;;;;;;;;;;;;;;;;5067253;28;19951;-79
2022/08/12 16:42:39;;;;;;;;;;;;;;;;;;5072232;28;19915;-80
2022/08/12 16:45:04;;;;;;;;;;;;;;;;;;5070522;28;20394;-78
2022/08/12 16:47:32;;;;;;;;;;;;;;;;;;5070837;28;19908;-80
2022/08/12 16:49:57;;;;;;;;;;;;;;;;;;5068999;28;19917;-78
2022/08/12 16:52:23;;;;;;;;;;;;;;;;;;5072139;28;19965;-78
2022/08/12 16:54:48;;;;;;;;;;;;;;;;;;5070009;28;19913;-79
2022/08/12 16:57:13;;;;;;;;;;;;;;;;;;5072099;28;19916;-77
2022/08/12 16:59:39;;;;;;;;;;;;;;;;;;5070511;28;19916;-78
2022/08/12 17:02:04;;;;;;;;;;;;;;;;;;5068979;28;19919;-78
2022/08/12 17:04:29;;;;;;;;;;;;;;;;;;5069350;28;19924;-79
2022/08/12 17:06:55;;;;;;;;;;;;;;;;;;5065599;28;19920;-79
2022/08/12 17:09:20;;;;;;;;;;;;;;;;;;5068996;28;19952;-79
2022/08/12 17:11:45;;;;;;;;;;;;;;;;;;5063194;28;19966;-78
2022/08/12 17:14:10;;;;;;;;;;;;;;;;;;5068462;28;19966;-79
2022/08/12 17:16:36;;;;;;;;;;;;;;;;;;5068800;28;19916;-78
2022/08/12 17:19:01;;;;;;;;;;;;;;;;;;5069885;28;20032;-78
2022/08/12 17:21:27;;;;;;;;;;;;;;;;;;5062763;28;20007;-79
2022/08/12 17:23:53;;;;;;;;;;;;;;;;;;5063762;28;19919;-79
2022/08/12 17:26:18;;;;;;;;;;;;;;;;;;5066577;28;19912;-79
2022/08/12 17:28:44;;;;;;;;;;;;;;;;;;5069701;28;20323;-79
2022/08/12 17:31:09;;;;;;;;;;;;;;;;;;5071057;28;19909;-79
2022/08/12 17:33:34;;;;;;;;;;;;;;;;;;5069731;28;19920;-79
2022/08/12 17:36:02;;;;;;;;;;;;;;;;;;5069656;28;19916;-79
2022/08/12 17:38:28;;;;;;;;;;;;;;;;;;5069631;28;19963;-79
2022/08/12 17:40:54;;;;;;;;;;;;;;;;;;5070225;28;19916;-79
2022/08/12 17:43:19;;;;;;;;;;;;;;;;;;5069513;28;20290;-79
2022/08/12 17:45:46;;;;;;;;;;;;;;;;;;5069668;28;19912;-79
2022/08/12 17:48:11;;;;;;;;;;;;;;;;;;5069925;28;20341;-79
2022/08/12 17:50:36;;;;;;;;;;;;;;;;;;5069800;28;19913;-79
2022/08/12 17:53:02;;;;;;;;;;;;;;;;;;5065955;28;20477;-80
2022/08/12 17:55:31;;;;;;;;;;;;;;;;;;5069032;28;20440;-79
2022/08/12 17:57:56;;;;;;;;;;;;;;;;;;5071477;28;20378;-79
2022/08/12 18:00:24;;;;;;;;;;;;;;;;;;5067874;28;20441;-79
2022/08/12 18:02:49;;;;;;;;;;;;;;;;;;5071611;28;19952;-79
2022/08/12 18:05:14;;;;;;;;;;;;;;;;;;5053160;28;19987;-79
2022/08/12 18:07:39;;;;;;;;;;;;;;;;;;5036681;28;19917;-79
2022/08/12 18:10:04;;;;;;;;;;;;;;;;;;5035047;28;19913;-79
2022/08/12 18:12:37;;;;;;;;;;;;;;;;;;5052646;28;19912;-80
2022/08/12 18:15:02;;;;;;;;;;;;;;;;;;5046643;28;19917;-79
2022/08/12 18:17:27;;;;;;;;;;;;;;;;;;5054748;28;19935;-78
2022/08/12 18:19:52;;;;;;;;;;;;;;;;;;5053800;28;19948;-81